sensor_id;sensor_type;location;lat;lon;timestamp;temperature;humidity
20284;DHT22;10301;50.832;4.080;2022-11-28T00:00:27;8.80;93.90
20284;DHT22;10301;50.832;4.080;2022-11-28T00:02:53;8.90;92.90
20284;DHT22;10301;50.832;4.080;2022-11-28T00:05:19;8.90;93.10
20284;DHT22;10301;50.832;4.080;2022-11-28T00:07:44;9.10;91.90
20284;DHT22;10301;50.832;4.080;2022-11-28T00:10:10;8.90;92.40
20284;DHT22;10301;50.832;4.080;2022-11-28T00:12:36;8.80;93.60
20284;DHT22;10301;50.832;4.080;2022-11-28T00:15:03;8.80;94.00
20284;DHT22;10301;50.832;4.080;2022-11-28T00:17:29;8.70;94.50
20284;DHT22;10301;50.832;4.080;2022-11-28T00:19:55;8.60;95.10
20284;DHT22;10301;50.832;4.080;2022-11-28T00:22:20;8.60;96.00
20284;DHT22;10301;50.832;4.080;2022-11-28T00:24:46;8.60;96.40
20284;DHT22;10301;50.832;4.080;2022-11-28T00:27:12;8.60;96.70
20284;DHT22;10301;50.832;4.080;2022-11-28T00:29:39;8.70;97.20
20284;DHT22;10301;50.832;4.080;2022-11-28T00:32:05;8.60;97.00
20284;DHT22;10301;50.832;4.080;2022-11-28T00:34:30;8.60;96.90
20284;DHT22;10301;50.832;4.080;2022-11-28T00:36:56;8.60;97.40
20284;DHT22;10301;50.832;4.080;2022-11-28T00:39:22;8.60;97.90
20284;DHT22;10301;50.832;4.080;2022-11-28T00:41:48;8.60;97.90
20284;DHT22;10301;50.832;4.080;2022-11-28T00:44:13;8.50;98.00
20284;DHT22;10301;50.832;4.080;2022-11-28T00:46:39;8.40;98.90
20284;DHT22;10301;50.832;4.080;2022-11-28T00:49:05;8.60;99.30
20284;DHT22;10301;50.832;4.080;2022-11-28T00:51:32;8.60;99.10
20284;DHT22;10301;50.832;4.080;2022-11-28T00:54:00;8.50;99.20
20284;DHT22;10301;50.832;4.080;2022-11-28T00:56:29;8.70;99.40
20284;DHT22;10301;50.832;4.080;2022-11-28T00:58:56;8.70;98.10
20284;DHT22;10301;50.832;4.080;2022-11-28T01:01:31;8.70;98.30
20284;DHT22;10301;50.832;4.080;2022-11-28T01:03:59;8.60;98.90
20284;DHT22;10301;50.832;4.080;2022-11-28T01:06:30;8.70;99.40
20284;DHT22;10301;50.832;4.080;2022-11-28T01:09:03;8.70;99.10
20284;DHT22;10301;50.832;4.080;2022-11-28T01:11:29;8.60;99.50
20284;DHT22;10301;50.832;4.080;2022-11-28T01:13:57;8.70;99.30
20284;DHT22;10301;50.832;4.080;2022-11-28T01:16:23;8.80;99.50
20284;DHT22;10301;50.832;4.080;2022-11-28T01:18:49;8.70;99.40
20284;DHT22;10301;50.832;4.080;2022-11-28T01:21:15;8.80;99.70
20284;DHT22;10301;50.832;4.080;2022-11-28T01:23:41;8.90;99.60
20284;DHT22;10301;50.832;4.080;2022-11-28T01:26:10;8.80;99.00
20284;DHT22;10301;50.832;4.080;2022-11-28T01:28:37;8.70;99.30
20284;DHT22;10301;50.832;4.080;2022-11-28T01:31:04;8.70;99.70
20284;DHT22;10301;50.832;4.080;2022-11-28T01:33:30;8.70;99.90
20284;DHT22;10301;50.832;4.080;2022-11-28T01:35:57;8.60;99.90
20284;DHT22;10301;50.832;4.080;2022-11-28T01:38:23;8.70;99.90
20284;DHT22;10301;50.832;4.080;2022-11-28T01:40:49;8.80;99.90
20284;DHT22;10301;50.832;4.080;2022-11-28T01:43:15;8.70;99.90
20284;DHT22;10301;50.832;4.080;2022-11-28T01:45:41;8.60;99.90
20284;DHT22;10301;50.832;4.080;2022-11-28T01:48:08;8.50;99.90
20284;DHT22;10301;50.832;4.080;2022-11-28T01:50:36;8.60;99.90
20284;DHT22;10301;50.832;4.080;2022-11-28T01:53:05;8.80;99.90
20284;DHT22;10301;50.832;4.080;2022-11-28T01:55:37;8.90;99.90
20284;DHT22;10301;50.832;4.080;2022-11-28T01:58:03;8.80;99.90
20284;DHT22;10301;50.832;4.080;2022-11-28T02:00:29;8.70;99.90
20284;DHT22;10301;50.832;4.080;2022-11-28T02:03:01;8.70;99.90
20284;DHT22;10301;50.832;4.080;2022-11-28T02:05:28;8.80;99.90
20284;DHT22;10301;50.832;4.080;2022-11-28T02:07:54;8.70;99.90
20284;DHT22;10301;50.832;4.080;2022-11-28T02:10:23;8.70;99.90
20284;DHT22;10301;50.832;4.080;2022-11-28T02:13:19;8.80;99.90
20284;DHT22;10301;50.832;4.080;2022-11-28T02:16:08;8.90;99.90
20284;DHT22;10301;50.832;4.080;2022-11-28T02:30:21;8.80;99.90
20284;DHT22;10301;50.832;4.080;2022-11-28T02:38:05;8.90;99.90
20284;DHT22;10301;50.832;4.080;2022-11-28T02:43:21;8.70;99.90
20284;DHT22;10301;50.832;4.080;2022-11-28T02:48:35;9.10;99.90
20284;DHT22;10301;50.832;4.080;2022-11-28T02:51:12;9.10;99.90
20284;DHT22;10301;50.832;4.080;2022-11-28T02:53:42;9.00;99.90
20284;DHT22;10301;50.832;4.080;2022-11-28T02:56:09;9.00;99.90
20284;DHT22;10301;50.832;4.080;2022-11-28T02:58:35;9.00;99.90
20284;DHT22;10301;50.832;4.080;2022-11-28T03:01:01;9.00;99.90
20284;DHT22;10301;50.832;4.080;2022-11-28T03:09:48;9.00;99.90
20284;DHT22;10301;50.832;4.080;2022-11-28T03:14:54;9.30;99.90
20284;DHT22;10301;50.832;4.080;2022-11-28T03:25:48;9.30;99.90
20284;DHT22;10301;50.832;4.080;2022-11-28T03:28:48;9.10;99.90
20284;DHT22;10301;50.832;4.080;2022-11-28T03:31:23;9.10;99.90
20284;DHT22;10301;50.832;4.080;2022-11-28T03:33:54;9.00;99.90
20284;DHT22;10301;50.832;4.080;2022-11-28T03:36:26;9.10;99.90
20284;DHT22;10301;50.832;4.080;2022-11-28T03:38:58;9.20;99.90
20284;DHT22;10301;50.832;4.080;2022-11-28T03:41:33;9.20;99.90
20284;DHT22;10301;50.832;4.080;2022-11-28T03:44:01;9.10;99.90
20284;DHT22;10301;50.832;4.080;2022-11-28T03:46:34;9.10;99.90
20284;DHT22;10301;50.832;4.080;2022-11-28T03:49:02;9.10;99.90
20284;DHT22;10301;50.832;4.080;2022-11-28T03:51:32;9.10;99.90
20284;DHT22;10301;50.832;4.080;2022-11-28T03:54:11;9.30;99.90
20284;DHT22;10301;50.832;4.080;2022-11-28T03:59:48;9.10;99.90
20284;DHT22;10301;50.832;4.080;2022-11-28T04:05:21;9.20;99.90
20284;DHT22;10301;50.832;4.080;2022-11-28T04:08:10;9.10;99.90
20284;DHT22;10301;50.832;4.080;2022-11-28T04:10:44;9.20;99.90
20284;DHT22;10301;50.832;4.080;2022-11-28T04:15:40;9.40;99.90
20284;DHT22;10301;50.832;4.080;2022-11-28T04:23:43;9.60;99.20
20284;DHT22;10301;50.832;4.080;2022-11-28T04:26:14;9.50;99.20
20284;DHT22;10301;50.832;4.080;2022-11-28T04:28:44;9.50;99.40
20284;DHT22;10301;50.832;4.080;2022-11-28T04:31:11;9.50;99.70
20284;DHT22;10301;50.832;4.080;2022-11-28T04:33:41;9.40;99.90
20284;DHT22;10301;50.832;4.080;2022-11-28T04:36:07;9.30;99.90
20284;DHT22;10301;50.832;4.080;2022-11-28T04:38:35;9.60;99.90
20284;DHT22;10301;50.832;4.080;2022-11-28T04:41:07;9.60;99.90
20284;DHT22;10301;50.832;4.080;2022-11-28T04:43:39;9.40;99.90
20284;DHT22;10301;50.832;4.080;2022-11-28T04:46:18;9.40;99.90
20284;DHT22;10301;50.832;4.080;2022-11-28T04:48:46;9.40;99.90
20284;DHT22;10301;50.832;4.080;2022-11-28T04:56:38;9.70;99.90
20284;DHT22;10301;50.832;4.080;2022-11-28T04:59:05;9.60;99.80
20284;DHT22;10301;50.832;4.080;2022-11-28T05:01:33;9.70;99.60
20284;DHT22;10301;50.832;4.080;2022-11-28T05:03:59;9.80;99.00
20284;DHT22;10301;50.832;4.080;2022-11-28T05:06:28;10.00;98.00
20284;DHT22;10301;50.832;4.080;2022-11-28T05:08:54;9.90;98.00
20284;DHT22;10301;50.832;4.080;2022-11-28T05:11:20;9.90;98.00
20284;DHT22;10301;50.832;4.080;2022-11-28T05:13:46;9.70;98.60
20284;DHT22;10301;50.832;4.080;2022-11-28T05:16:16;9.70;99.40
20284;DHT22;10301;50.832;4.080;2022-11-28T05:18:42;9.70;99.30
20284;DHT22;10301;50.832;4.080;2022-11-28T05:21:08;9.70;99.40
20284;DHT22;10301;50.832;4.080;2022-11-28T05:23:36;9.70;99.60
20284;DHT22;10301;50.832;4.080;2022-11-28T05:26:07;9.70;99.90
20284;DHT22;10301;50.832;4.080;2022-11-28T05:28:33;9.80;99.80
20284;DHT22;10301;50.832;4.080;2022-11-28T05:31:00;9.80;99.70
20284;DHT22;10301;50.832;4.080;2022-11-28T05:33:30;10.00;99.40
20284;DHT22;10301;50.832;4.080;2022-11-28T05:36:07;9.80;98.90
20284;DHT22;10301;50.832;4.080;2022-11-28T05:38:33;10.00;98.50
20284;DHT22;10301;50.832;4.080;2022-11-28T05:41:00;10.00;97.90
20284;DHT22;10301;50.832;4.080;2022-11-28T05:43:26;10.00;98.20
20284;DHT22;10301;50.832;4.080;2022-11-28T05:45:54;10.00;98.80
20284;DHT22;10301;50.832;4.080;2022-11-28T05:48:20;10.10;98.00
20284;DHT22;10301;50.832;4.080;2022-11-28T05:50:46;10.10;97.70
20284;DHT22;10301;50.832;4.080;2022-11-28T05:53:11;10.00;97.90
20284;DHT22;10301;50.832;4.080;2022-11-28T05:55:38;10.00;97.90
20284;DHT22;10301;50.832;4.080;2022-11-28T05:58:04;10.00;98.60
20284;DHT22;10301;50.832;4.080;2022-11-28T06:00:30;10.00;98.80
20284;DHT22;10301;50.832;4.080;2022-11-28T06:02:56;10.00;98.90
20284;DHT22;10301;50.832;4.080;2022-11-28T06:05:23;10.00;99.00
20284;DHT22;10301;50.832;4.080;2022-11-28T06:07:49;10.10;99.00
20284;DHT22;10301;50.832;4.080;2022-11-28T06:10:15;10.00;98.40
20284;DHT22;10301;50.832;4.080;2022-11-28T06:12:40;10.00;98.80
20284;DHT22;10301;50.832;4.080;2022-11-28T06:15:06;10.10;98.70
20284;DHT22;10301;50.832;4.080;2022-11-28T06:17:32;10.10;98.20
20284;DHT22;10301;50.832;4.080;2022-11-28T06:19:58;10.00;98.10
20284;DHT22;10301;50.832;4.080;2022-11-28T06:22:23;10.00;98.80
20284;DHT22;10301;50.832;4.080;2022-11-28T06:24:49;9.90;99.00
20284;DHT22;10301;50.832;4.080;2022-11-28T06:27:14;9.80;99.60
20284;DHT22;10301;50.832;4.080;2022-11-28T06:29:40;9.70;99.90
20284;DHT22;10301;50.832;4.080;2022-11-28T06:32:06;9.70;99.90
20284;DHT22;10301;50.832;4.080;2022-11-28T06:34:32;9.90;99.90
20284;DHT22;10301;50.832;4.080;2022-11-28T06:36:58;10.00;99.10
20284;DHT22;10301;50.832;4.080;2022-11-28T06:39:23;10.00;98.60
20284;DHT22;10301;50.832;4.080;2022-11-28T06:41:49;9.80;99.20
20284;DHT22;10301;50.832;4.080;2022-11-28T06:44:15;9.80;99.80
20284;DHT22;10301;50.832;4.080;2022-11-28T06:46:41;9.90;99.90
20284;DHT22;10301;50.832;4.080;2022-11-28T06:49:11;10.00;99.60
20284;DHT22;10301;50.832;4.080;2022-11-28T06:51:40;10.10;99.20
20284;DHT22;10301;50.832;4.080;2022-11-28T06:54:07;10.00;99.50
20284;DHT22;10301;50.832;4.080;2022-11-28T06:56:33;9.90;99.40
20284;DHT22;10301;50.832;4.080;2022-11-28T06:58:59;9.90;99.40
20284;DHT22;10301;50.832;4.080;2022-11-28T07:01:27;10.00;99.40
20284;DHT22;10301;50.832;4.080;2022-11-28T07:03:53;9.80;99.80
20284;DHT22;10301;50.832;4.080;2022-11-28T07:06:20;9.70;99.90
20284;DHT22;10301;50.832;4.080;2022-11-28T07:08:47;9.70;99.90
20284;DHT22;10301;50.832;4.080;2022-11-28T07:11:22;9.70;99.90
20284;DHT22;10301;50.832;4.080;2022-11-28T07:13:49;9.70;99.90
20284;DHT22;10301;50.832;4.080;2022-11-28T07:18:44;9.80;99.90
20284;DHT22;10301;50.832;4.080;2022-11-28T07:21:10;9.90;99.90
20284;DHT22;10301;50.832;4.080;2022-11-28T07:23:36;10.10;99.90
20284;DHT22;10301;50.832;4.080;2022-11-28T07:26:03;9.90;99.70
20284;DHT22;10301;50.832;4.080;2022-11-28T07:28:33;9.70;99.90
20284;DHT22;10301;50.832;4.080;2022-11-28T07:31:04;9.50;99.90
20284;DHT22;10301;50.832;4.080;2022-11-28T07:33:31;9.40;99.90
20284;DHT22;10301;50.832;4.080;2022-11-28T07:36:01;9.30;99.90
20284;DHT22;10301;50.832;4.080;2022-11-28T07:38:27;9.30;99.90
20284;DHT22;10301;50.832;4.080;2022-11-28T07:40:53;9.20;99.90
20284;DHT22;10301;50.832;4.080;2022-11-28T07:43:18;9.20;99.90
20284;DHT22;10301;50.832;4.080;2022-11-28T07:45:44;9.40;99.90
20284;DHT22;10301;50.832;4.080;2022-11-28T07:48:10;9.70;99.90
20284;DHT22;10301;50.832;4.080;2022-11-28T07:50:37;9.80;99.90
20284;DHT22;10301;50.832;4.080;2022-11-28T07:53:03;10.00;99.90
20284;DHT22;10301;50.832;4.080;2022-11-28T07:55:29;10.10;99.90
20284;DHT22;10301;50.832;4.080;2022-11-28T07:57:54;10.30;99.90
20284;DHT22;10301;50.832;4.080;2022-11-28T08:00:20;10.10;99.90
20284;DHT22;10301;50.832;4.080;2022-11-28T08:02:46;10.10;99.90
20284;DHT22;10301;50.832;4.080;2022-11-28T08:05:12;10.20;99.90
20284;DHT22;10301;50.832;4.080;2022-11-28T08:07:37;10.30;99.90
20284;DHT22;10301;50.832;4.080;2022-11-28T08:10:05;10.30;99.70
20284;DHT22;10301;50.832;4.080;2022-11-28T08:12:30;10.20;99.60
20284;DHT22;10301;50.832;4.080;2022-11-28T08:14:56;10.20;99.90
20284;DHT22;10301;50.832;4.080;2022-11-28T08:17:22;10.20;99.40
20284;DHT22;10301;50.832;4.080;2022-11-28T08:19:48;10.20;99.60
20284;DHT22;10301;50.832;4.080;2022-11-28T08:22:14;10.20;99.70
20284;DHT22;10301;50.832;4.080;2022-11-28T08:24:39;10.30;99.50
20284;DHT22;10301;50.832;4.080;2022-11-28T08:27:05;10.30;99.20
20284;DHT22;10301;50.832;4.080;2022-11-28T08:29:30;10.40;99.20
20284;DHT22;10301;50.832;4.080;2022-11-28T08:31:56;10.20;99.70
20284;DHT22;10301;50.832;4.080;2022-11-28T08:34:22;10.30;99.60
20284;DHT22;10301;50.832;4.080;2022-11-28T08:36:47;10.30;99.90
20284;DHT22;10301;50.832;4.080;2022-11-28T08:39:14;10.40;99.90
20284;DHT22;10301;50.832;4.080;2022-11-28T08:41:40;10.50;99.10
20284;DHT22;10301;50.832;4.080;2022-11-28T08:44:05;10.50;98.90
20284;DHT22;10301;50.832;4.080;2022-11-28T08:46:32;10.70;98.60
20284;DHT22;10301;50.832;4.080;2022-11-28T08:48:58;10.70;97.90
20284;DHT22;10301;50.832;4.080;2022-11-28T08:51:26;10.70;97.30
20284;DHT22;10301;50.832;4.080;2022-11-28T08:53:54;10.70;96.80
20284;DHT22;10301;50.832;4.080;2022-11-28T08:56:20;10.70;96.90
20284;DHT22;10301;50.832;4.080;2022-11-28T08:58:46;10.70;96.90
20284;DHT22;10301;50.832;4.080;2022-11-28T09:01:20;10.80;97.20
20284;DHT22;10301;50.832;4.080;2022-11-28T09:03:47;10.90;97.00
20284;DHT22;10301;50.832;4.080;2022-11-28T09:06:13;10.90;96.40
20284;DHT22;10301;50.832;4.080;2022-11-28T09:08:39;10.70;96.90
20284;DHT22;10301;50.832;4.080;2022-11-28T09:11:06;10.80;96.20
20284;DHT22;10301;50.832;4.080;2022-11-28T09:13:32;10.90;95.60
20284;DHT22;10301;50.832;4.080;2022-11-28T09:15:58;11.00;94.90
20284;DHT22;10301;50.832;4.080;2022-11-28T09:18:23;11.00;94.60
20284;DHT22;10301;50.832;4.080;2022-11-28T09:20:59;10.90;95.10
20284;DHT22;10301;50.832;4.080;2022-11-28T09:23:25;11.00;94.60
20284;DHT22;10301;50.832;4.080;2022-11-28T09:25:51;10.90;95.00
20284;DHT22;10301;50.832;4.080;2022-11-28T09:28:16;10.90;95.30
20284;DHT22;10301;50.832;4.080;2022-11-28T09:30:43;10.90;95.70
20284;DHT22;10301;50.832;4.080;2022-11-28T09:33:09;10.90;96.60
20284;DHT22;10301;50.832;4.080;2022-11-28T09:35:40;10.90;95.40
20284;DHT22;10301;50.832;4.080;2022-11-28T09:38:06;11.00;96.20
20284;DHT22;10301;50.832;4.080;2022-11-28T09:40:41;11.20;95.70
20284;DHT22;10301;50.832;4.080;2022-11-28T09:43:36;11.20;95.50
20284;DHT22;10301;50.832;4.080;2022-11-28T09:46:11;11.20;94.20
20284;DHT22;10301;50.832;4.080;2022-11-28T09:48:43;11.30;93.50
20284;DHT22;10301;50.832;4.080;2022-11-28T09:54:06;11.10;95.20
20284;DHT22;10301;50.832;4.080;2022-11-28T09:56:35;11.30;94.50
20284;DHT22;10301;50.832;4.080;2022-11-28T09:59:02;11.50;92.30
20284;DHT22;10301;50.832;4.080;2022-11-28T10:01:54;11.50;92.40
20284;DHT22;10301;50.832;4.080;2022-11-28T10:04:39;11.40;93.20
20284;DHT22;10301;50.832;4.080;2022-11-28T10:07:18;11.70;91.90
20284;DHT22;10301;50.832;4.080;2022-11-28T10:12:42;11.30;93.70
20284;DHT22;10301;50.832;4.080;2022-11-28T10:18:14;11.30;92.60
20284;DHT22;10301;50.832;4.080;2022-11-28T10:20:47;11.40;93.30
20284;DHT22;10301;50.832;4.080;2022-11-28T10:23:23;11.50;93.40
20284;DHT22;10301;50.832;4.080;2022-11-28T10:26:04;11.60;92.40
20284;DHT22;10301;50.832;4.080;2022-11-28T10:28:34;11.60;92.80
20284;DHT22;10301;50.832;4.080;2022-11-28T10:31:09;11.50;92.80
20284;DHT22;10301;50.832;4.080;2022-11-28T10:33:45;11.60;92.70
20284;DHT22;10301;50.832;4.080;2022-11-28T10:36:20;11.50;91.40
20284;DHT22;10301;50.832;4.080;2022-11-28T10:38:48;11.10;93.40
20284;DHT22;10301;50.832;4.080;2022-11-28T10:41:36;11.00;95.50
20284;DHT22;10301;50.832;4.080;2022-11-28T10:44:45;11.30;93.90
20284;DHT22;10301;50.832;4.080;2022-11-28T10:50:20;11.30;92.60
20284;DHT22;10301;50.832;4.080;2022-11-28T10:52:59;11.40;92.90
20284;DHT22;10301;50.832;4.080;2022-11-28T10:58:03;11.10;94.50
20284;DHT22;10301;50.832;4.080;2022-11-28T11:00:34;11.20;95.50
20284;DHT22;10301;50.832;4.080;2022-11-28T11:03:01;11.20;94.30
20284;DHT22;10301;50.832;4.080;2022-11-28T11:05:32;11.20;94.40
20284;DHT22;10301;50.832;4.080;2022-11-28T11:08:01;11.20;95.00
20284;DHT22;10301;50.832;4.080;2022-11-28T11:10:49;11.10;95.80
20284;DHT22;10301;50.832;4.080;2022-11-28T11:13:18;11.00;95.60
20284;DHT22;10301;50.832;4.080;2022-11-28T11:15:48;11.10;95.40
20284;DHT22;10301;50.832;4.080;2022-11-28T11:18:35;11.40;93.90
20284;DHT22;10301;50.832;4.080;2022-11-28T11:21:19;11.20;94.00
20284;DHT22;10301;50.832;4.080;2022-11-28T11:23:46;11.20;94.60
20284;DHT22;10301;50.832;4.080;2022-11-28T11:26:26;11.20;94.90
20284;DHT22;10301;50.832;4.080;2022-11-28T11:28:53;11.20;95.60
20284;DHT22;10301;50.832;4.080;2022-11-28T11:31:25;11.30;94.90
20284;DHT22;10301;50.832;4.080;2022-11-28T11:34:01;11.50;93.50
20284;DHT22;10301;50.832;4.080;2022-11-28T11:36:33;11.40;92.80
20284;DHT22;10301;50.832;4.080;2022-11-28T11:41:35;11.70;92.80
20284;DHT22;10301;50.832;4.080;2022-11-28T11:46:53;11.80;91.60
20284;DHT22;10301;50.832;4.080;2022-11-28T11:49:45;11.70;92.00
20284;DHT22;10301;50.832;4.080;2022-11-28T11:52:25;11.80;90.70
20284;DHT22;10301;50.832;4.080;2022-11-28T11:55:00;11.30;91.80
20284;DHT22;10301;50.832;4.080;2022-11-28T11:57:34;11.30;94.80
20284;DHT22;10301;50.832;4.080;2022-11-28T12:05:22;11.40;93.90
20284;DHT22;10301;50.832;4.080;2022-11-28T12:10:49;11.70;93.00
20284;DHT22;10301;50.832;4.080;2022-11-28T12:13:19;11.70;92.50
20284;DHT22;10301;50.832;4.080;2022-11-28T12:18:45;12.00;91.70
20284;DHT22;10301;50.832;4.080;2022-11-28T12:21:30;12.20;88.50
20284;DHT22;10301;50.832;4.080;2022-11-28T12:26:43;12.90;74.70
20284;DHT22;10301;50.832;4.080;2022-11-28T12:32:03;12.70;76.20
20284;DHT22;10301;50.832;4.080;2022-11-28T12:40:30;12.30;82.00
20284;DHT22;10301;50.832;4.080;2022-11-28T12:51:24;12.30;84.80
20284;DHT22;10301;50.832;4.080;2022-11-28T12:56:53;12.80;75.30
20284;DHT22;10301;50.832;4.080;2022-11-28T12:59:32;13.00;71.50
20284;DHT22;10301;50.832;4.080;2022-11-28T13:02:19;13.10;67.10
20284;DHT22;10301;50.832;4.080;2022-11-28T13:07:53;13.20;67.90
20284;DHT22;10301;50.832;4.080;2022-11-28T13:10:54;13.30;66.40
20284;DHT22;10301;50.832;4.080;2022-11-28T13:13:31;13.10;61.70
20284;DHT22;10301;50.832;4.080;2022-11-28T13:16:46;13.20;62.50
20284;DHT22;10301;50.832;4.080;2022-11-28T13:24:22;12.60;79.00
20284;DHT22;10301;50.832;4.080;2022-11-28T13:29:41;12.70;78.60
20284;DHT22;10301;50.832;4.080;2022-11-28T13:35:00;12.60;73.80
20284;DHT22;10301;50.832;4.080;2022-11-28T13:37:40;12.60;74.70
20284;DHT22;10301;50.832;4.080;2022-11-28T13:40:17;12.60;69.00
20284;DHT22;10301;50.832;4.080;2022-11-28T13:43:51;12.80;64.50
20284;DHT22;10301;50.832;4.080;2022-11-28T13:45:51;12.90;61.20
20284;DHT22;10301;50.832;4.080;2022-11-28T13:53:40;12.40;72.20
20284;DHT22;10301;50.832;4.080;2022-11-28T13:58:41;12.50;74.60
20284;DHT22;10301;50.832;4.080;2022-11-28T14:01:12;12.70;75.50
20284;DHT22;10301;50.832;4.080;2022-11-28T14:06:35;13.10;66.40
20284;DHT22;10301;50.832;4.080;2022-11-28T14:09:34;13.00;64.70
20284;DHT22;10301;50.832;4.080;2022-11-28T14:25:25;13.30;58.50
20284;DHT22;10301;50.832;4.080;2022-11-28T14:28:04;13.30;56.20
20284;DHT22;10301;50.832;4.080;2022-11-28T14:30:35;13.30;57.40
20284;DHT22;10301;50.832;4.080;2022-11-28T14:33:14;13.00;59.90
20284;DHT22;10301;50.832;4.080;2022-11-28T14:41:06;12.70;68.20
20284;DHT22;10301;50.832;4.080;2022-11-28T14:43:46;12.80;67.10
20284;DHT22;10301;50.832;4.080;2022-11-28T14:46:22;12.80;63.80
20284;DHT22;10301;50.832;4.080;2022-11-28T14:55:03;12.80;65.40
20284;DHT22;10301;50.832;4.080;2022-11-28T14:57:27;12.30;75.90
20284;DHT22;10301;50.832;4.080;2022-11-28T14:59:56;11.80;85.00
20284;DHT22;10301;50.832;4.080;2022-11-28T15:02:36;11.70;89.50
20284;DHT22;10301;50.832;4.080;2022-11-28T15:05:26;11.70;91.40
20284;DHT22;10301;50.832;4.080;2022-11-28T15:14:13;11.80;90.70
20284;DHT22;10301;50.832;4.080;2022-11-28T15:16:42;12.00;87.70
20284;DHT22;10301;50.832;4.080;2022-11-28T15:19:15;12.20;81.10
20284;DHT22;10301;50.832;4.080;2022-11-28T15:21:47;12.00;84.20
20284;DHT22;10301;50.832;4.080;2022-11-28T15:24:15;12.10;81.10
20284;DHT22;10301;50.832;4.080;2022-11-28T15:26:41;12.10;78.80
20284;DHT22;10301;50.832;4.080;2022-11-28T15:29:17;12.10;76.10
20284;DHT22;10301;50.832;4.080;2022-11-28T15:31:45;11.90;78.70
20284;DHT22;10301;50.832;4.080;2022-11-28T15:34:35;11.80;80.10
20284;DHT22;10301;50.832;4.080;2022-11-28T15:37:16;11.60;83.10
20284;DHT22;10301;50.832;4.080;2022-11-28T15:39:46;11.40;89.90
20284;DHT22;10301;50.832;4.080;2022-11-28T15:42:32;11.50;89.40
20284;DHT22;10301;50.832;4.080;2022-11-28T15:45:10;11.50;88.20
20284;DHT22;10301;50.832;4.080;2022-11-28T15:47:37;11.40;87.90
20284;DHT22;10301;50.832;4.080;2022-11-28T15:50:15;11.30;87.40
20284;DHT22;10301;50.832;4.080;2022-11-28T15:53:01;11.10;89.90
20284;DHT22;10301;50.832;4.080;2022-11-28T15:55:30;10.90;90.80
20284;DHT22;10301;50.832;4.080;2022-11-28T16:00:34;11.00;92.20
20284;DHT22;10301;50.832;4.080;2022-11-28T16:03:00;11.10;91.70
20284;DHT22;10301;50.832;4.080;2022-11-28T16:05:26;11.20;91.10
20284;DHT22;10301;50.832;4.080;2022-11-28T16:07:52;11.20;90.80
20284;DHT22;10301;50.832;4.080;2022-11-28T16:10:31;11.40;90.00
20284;DHT22;10301;50.832;4.080;2022-11-28T16:13:08;11.40;90.30
20284;DHT22;10301;50.832;4.080;2022-11-28T16:15:35;11.50;89.00
20284;DHT22;10301;50.832;4.080;2022-11-28T16:18:01;11.60;88.00
20284;DHT22;10301;50.832;4.080;2022-11-28T16:20:32;11.70;87.10
20284;DHT22;10301;50.832;4.080;2022-11-28T16:23:13;11.80;86.70
20284;DHT22;10301;50.832;4.080;2022-11-28T16:25:42;11.90;81.90
20284;DHT22;10301;50.832;4.080;2022-11-28T16:28:37;11.80;82.30
20284;DHT22;10301;50.832;4.080;2022-11-28T16:31:16;11.60;86.10
20284;DHT22;10301;50.832;4.080;2022-11-28T16:33:44;11.70;89.00
20284;DHT22;10301;50.832;4.080;2022-11-28T16:36:19;11.60;90.00
20284;DHT22;10301;50.832;4.080;2022-11-28T16:38:46;11.80;86.90
20284;DHT22;10301;50.832;4.080;2022-11-28T16:41:22;11.70;85.80
20284;DHT22;10301;50.832;4.080;2022-11-28T16:43:53;11.70;89.00
20284;DHT22;10301;50.832;4.080;2022-11-28T16:46:24;11.90;89.10
20284;DHT22;10301;50.832;4.080;2022-11-28T16:48:57;12.00;85.70
20284;DHT22;10301;50.832;4.080;2022-11-28T16:51:31;12.00;84.80
20284;DHT22;10301;50.832;4.080;2022-11-28T16:53:58;12.00;85.40
20284;DHT22;10301;50.832;4.080;2022-11-28T17:01:22;11.70;88.40
20284;DHT22;10301;50.832;4.080;2022-11-28T17:03:51;11.50;90.40
20284;DHT22;10301;50.832;4.080;2022-11-28T17:06:29;11.50;91.70
20284;DHT22;10301;50.832;4.080;2022-11-28T17:09:06;11.70;91.60
20284;DHT22;10301;50.832;4.080;2022-11-28T17:11:34;11.80;90.10
20284;DHT22;10301;50.832;4.080;2022-11-28T17:14:02;11.70;90.50
20284;DHT22;10301;50.832;4.080;2022-11-28T17:16:29;11.50;90.60
20284;DHT22;10301;50.832;4.080;2022-11-28T17:18:57;11.60;91.20
20284;DHT22;10301;50.832;4.080;2022-11-28T17:21:43;11.70;90.10
20284;DHT22;10301;50.832;4.080;2022-11-28T17:24:21;11.40;91.10
20284;DHT22;10301;50.832;4.080;2022-11-28T17:26:48;11.40;93.20
20284;DHT22;10301;50.832;4.080;2022-11-28T17:29:14;11.50;91.00
20284;DHT22;10301;50.832;4.080;2022-11-28T17:31:42;11.40;92.00
20284;DHT22;10301;50.832;4.080;2022-11-28T17:34:29;11.40;91.50
20284;DHT22;10301;50.832;4.080;2022-11-28T17:36:56;11.40;92.20
20284;DHT22;10301;50.832;4.080;2022-11-28T17:39:22;11.30;92.40
20284;DHT22;10301;50.832;4.080;2022-11-28T17:41:48;11.20;93.80
20284;DHT22;10301;50.832;4.080;2022-11-28T17:44:20;11.00;94.50
20284;DHT22;10301;50.832;4.080;2022-11-28T17:46:46;10.90;96.00
20284;DHT22;10301;50.832;4.080;2022-11-28T17:49:12;10.80;96.50
20284;DHT22;10301;50.832;4.080;2022-11-28T17:51:38;11.00;97.00
20284;DHT22;10301;50.832;4.080;2022-11-28T17:54:04;11.10;96.80
20284;DHT22;10301;50.832;4.080;2022-11-28T17:56:30;11.10;94.90
20284;DHT22;10301;50.832;4.080;2022-11-28T17:59:00;11.20;94.90
20284;DHT22;10301;50.832;4.080;2022-11-28T18:01:28;11.30;93.70
20284;DHT22;10301;50.832;4.080;2022-11-28T18:03:54;10.90;94.90
20284;DHT22;10301;50.832;4.080;2022-11-28T18:06:21;11.10;95.40
20284;DHT22;10301;50.832;4.080;2022-11-28T18:08:47;11.20;94.60
20284;DHT22;10301;50.832;4.080;2022-11-28T18:11:15;11.30;93.90
20284;DHT22;10301;50.832;4.080;2022-11-28T18:13:42;11.40;93.40
20284;DHT22;10301;50.832;4.080;2022-11-28T18:16:09;11.30;92.70
20284;DHT22;10301;50.832;4.080;2022-11-28T18:18:36;11.50;93.00
20284;DHT22;10301;50.832;4.080;2022-11-28T18:21:02;11.60;91.70
20284;DHT22;10301;50.832;4.080;2022-11-28T18:23:31;11.50;90.40
20284;DHT22;10301;50.832;4.080;2022-11-28T18:25:57;11.30;91.50
20284;DHT22;10301;50.832;4.080;2022-11-28T18:28:22;11.20;93.10
20284;DHT22;10301;50.832;4.080;2022-11-28T18:30:48;11.20;93.80
20284;DHT22;10301;50.832;4.080;2022-11-28T18:33:14;11.20;93.00
20284;DHT22;10301;50.832;4.080;2022-11-28T18:35:40;11.10;93.30
20284;DHT22;10301;50.832;4.080;2022-11-28T18:38:07;11.20;94.30
20284;DHT22;10301;50.832;4.080;2022-11-28T18:40:35;11.40;93.70
20284;DHT22;10301;50.832;4.080;2022-11-28T18:43:01;11.50;91.80
20284;DHT22;10301;50.832;4.080;2022-11-28T18:45:27;11.50;91.60
20284;DHT22;10301;50.832;4.080;2022-11-28T18:47:53;11.20;90.10
20284;DHT22;10301;50.832;4.080;2022-11-28T18:50:19;11.10;93.70
20284;DHT22;10301;50.832;4.080;2022-11-28T18:52:44;11.10;94.10
20284;DHT22;10301;50.832;4.080;2022-11-28T18:55:10;11.20;94.40